Main page
METAR-TAF:

METAR-TAF

Airports :

Exeter Airport

Exeter, England

latitude: 50-44N, longitude: 003-25W, elevation: 30 m

Current weather observation

The report was made 33 minutes ago, at 07:20 UTC
Wind 7 kt from the West/Southwest, varying between Southwest and West/Northwest
Temperature 14°C
Humidity 77%
Pressure 1003 hPa
Visibility 10 km or more
Few clouds at a height of 1500 ft

METAR: EGTE 180720Z 25007KT 220V290 9999 FEW015 14/10 Q1003

Time: 08:53 (07:53 UTC)

Forecast

The report was made 2 hours and 59 minutes ago, at 04:54 UTC
Forecast valid from 18 at 06 UTC to 18 at 15 UTC
Wind 9 kt from the West/Southwest
Visibility 10 km or more
Scattered clouds at a height of 3000 ft

TAF: EGTE 180454Z 1806/1815 24009KT 9999 SCT030

Weather observations and forecasts of more than 4000 airports (METAR and TAF reports).

The available stations are represented by yellow and red dots on the map.

Hover mouse over dot to see the name of the station.

Then click to see weather observations and forecasts.

To change the map : click on the green buttons with a black cross to zoom in, on the green button with a dash to zoom out, or on the green arrows for adjacent maps.


METAR-TAF: